Time;durP1;ratioP1;P1;durP2;ratioP2;P2;SDS_P1;SDS_P2;PMS_P1;PMS_P2;Temp;Humidity;BMP_temperature;BMP_pressure;BME280_temperature;BME280_humidity;BME280_pressure;Samples;Min_cycle;Max_cycle;Signal;HPM_P1;HPM_P2
2021/04/21 00:00:34;;;;;;;39.53;23.60;;;;;;;11.48;55.03;99722.47;3559616;40;20038;-69
2021/04/21 00:03:01;;;;;;;39.45;24.67;;;;;;;11.47;55.15;99719.00;3558254;40;20034;-70
2021/04/21 00:05:28;;;;;;;43.20;24.17;;;;;;;11.46;55.07;99717.31;3556275;40;20427;-70
2021/04/21 00:07:57;;;;;;;44.25;24.52;;;;;;;11.44;55.24;99710.41;3553924;40;20115;-69
2021/04/21 00:10:25;;;;;;;34.83;23.92;;;;;;;11.38;55.36;99714.19;3557377;40;20038;-69
2021/04/21 00:12:53;;;;;;;35.38;22.83;;;;;;;11.32;55.34;99705.78;3559463;40;20058;-69
2021/04/21 00:15:22;;;;;;;34.05;21.02;;;;;;;11.25;55.69;99698.25;3561698;40;20044;-69
2021/04/21 00:17:52;;;;;;;31.58;20.77;;;;;;;11.22;56.02;99703.63;3555761;40;20069;-70
2021/04/21 00:20:20;;;;;;;31.50;20.48;;;;;;;11.24;55.91;99704.41;3556297;40;20063;-70
2021/04/21 00:22:55;;;;;;;34.50;21.38;;;;;;;11.21;56.12;99701.91;3557412;40;20394;-70
2021/04/21 00:25:22;;;;;;;36.60;23.02;;;;;;;11.27;55.89;99698.16;3554620;40;20508;-70
2021/04/21 00:27:51;;;;;;;39.50;23.35;;;;;;;11.26;56.11;99696.47;3556098;40;20066;-70
2021/04/21 00:30:20;;;;;;;36.63;24.38;;;;;;;11.23;56.17;99694.81;3554942;40;20074;-70
2021/04/21 00:32:51;;;;;;;41.05;25.88;;;;;;;11.19;56.46;99695.91;3560308;40;20066;-71
2021/04/21 00:35:22;;;;;;;41.97;25.20;;;;;;;11.10;56.68;99698.13;3559488;40;20050;-70
2021/04/21 00:37:50;;;;;;;35.40;22.92;;;;;;;11.09;56.57;99697.28;3555984;40;20318;-70
2021/04/21 00:40:23;;;;;;;37.60;23.33;;;;;;;11.06;56.69;99691.34;3557987;40;20066;-71
2021/04/21 00:42:54;;;;;;;42.38;25.08;;;;;;;11.05;56.67;99694.91;3556878;40;20038;-70
2021/04/21 00:45:21;;;;;;;;;;;;;;;11.16;55.91;99696.06;3557502;40;20360;-70
2021/04/21 00:48:02;;;;;;;38.78;23.25;;;;;;;11.01;56.49;99694.16;3565476;40;19937;-70
2021/04/21 00:50:41;;;;;;;36.80;22.52;;;;;;;10.95;56.91;99694.47;3561048;40;20049;-70
2021/04/21 00:53:13;;;;;;;39.30;24.00;;;;;;;10.93;57.05;99691.09;3554035;40;20183;-70
2021/04/21 00:55:47;;;;;;;40.95;24.48;;;;;;;10.87;57.31;99697.50;3555154;40;20049;-71
2021/04/21 00:58:28;;;;;;;38.90;24.95;;;;;;;10.81;57.47;99691.66;3556489;40;20139;-71
2021/04/21 01:00:56;;;;;;;37.70;24.92;;;;;;;10.77;57.59;99698.00;3555958;40;20078;-70
2021/04/21 01:03:24;;;;;;;43.28;25.63;;;;;;;10.69;57.86;99688.72;3554614;40;20044;-70
2021/04/21 01:05:55;;;;;;;45.08;27.55;;;;;;;10.63;58.12;99694.28;3558623;40;20042;-70
2021/04/21 01:08:26;;;;;;;61.28;29.77;;;;;;;10.57;58.20;99694.53;3572451;40;20034;-71
2021/04/21 01:10:58;;;;;;;43.58;25.02;;;;;;;10.48;58.31;99688.88;3556616;40;20045;-67
2021/04/21 01:13:29;;;;;;;40.40;24.92;;;;;;;10.45;58.55;99691.66;3558315;40;20094;-67
2021/04/21 01:15:58;;;;;;;38.63;23.40;;;;;;;10.43;58.58;99694.34;3565020;40;20039;-67
2021/04/21 01:18:29;;;;;;;37.72;24.00;;;;;;;10.41;58.85;99688.34;3556719;40;20125;-68
2021/04/21 01:21:02;;;;;;;43.15;26.77;;;;;;;10.41;58.73;99684.84;3558598;40;20041;-68
2021/04/21 01:23:52;;;;;;;41.22;25.45;;;;;;;10.39;58.83;99680.53;3554674;40;20030;-68
2021/04/21 01:26:39;;;;;;;32.25;22.05;;;;;;;10.39;58.77;99683.13;3555354;40;20403;-67
2021/04/21 01:29:07;;;;;;;33.15;21.88;;;;;;;10.41;58.69;99675.25;3557655;40;20054;-67
2021/04/21 01:31:35;;;;;;;33.72;22.77;;;;;;;10.41;58.86;99671.72;3557160;40;20417;-67
2021/04/21 01:34:05;;;;;;;37.08;22.60;;;;;;;10.37;59.07;99666.63;3555723;40;20042;-67
2021/04/21 01:36:33;;;;;;;42.65;25.52;;;;;;;10.36;59.21;99669.34;3556266;40;20045;-66
2021/04/21 01:39:03;;;;;;;40.13;23.98;;;;;;;10.33;59.30;99665.09;3556871;40;20057;-67
2021/04/21 01:41:37;;;;;;;41.40;24.92;;;;;;;10.32;59.55;99665.16;3556912;40;20038;-67
2021/04/21 01:44:10;;;;;;;40.65;26.52;;;;;;;10.35;59.52;99667.63;3557867;40;20123;-68
2021/04/21 01:46:39;;;;;;;37.88;25.67;;;;;;;10.38;59.41;99668.34;3563512;40;20124;-67
2021/04/21 01:49:41;;;;;;;37.40;24.48;;;;;;;10.38;59.57;99667.50;3558357;40;20042;-67
2021/04/21 01:52:23;;;;;;;34.92;22.00;;;;;;;10.41;59.43;99666.50;3545677;40;20040;-66
2021/04/21 01:54:54;;;;;;;37.20;22.77;;;;;;;10.38;59.49;99657.84;3558472;40;20069;-67
2021/04/21 01:57:30;;;;;;;33.75;21.75;;;;;;;10.41;59.58;99661.25;3558757;40;20030;-67
2021/04/21 02:00:04;;;;;;;32.67;21.73;;;;;;;10.42;59.82;99662.97;3559662;40;20046;-68
2021/04/21 02:02:36;;;;;;;36.35;21.30;;;;;;;10.45;59.48;99653.19;3567068;40;20053;-67
2021/04/21 02:05:08;;;;;;;31.40;21.50;;;;;;;10.48;59.60;99657.44;3560272;40;20075;-67
2021/04/21 02:07:39;;;;;;;;;;;;;;;10.61;58.72;99659.38;3560050;40;20071;-67
2021/04/21 02:10:20;;;;;;;33.72;21.23;;;;;;;10.52;59.14;99664.22;3560128;40;19944;-65
2021/04/21 02:12:53;;;;;;;36.47;22.08;;;;;;;10.51;59.31;99657.28;3559974;40;20037;-68
2021/04/21 02:15:26;;;;;;;33.70;20.38;;;;;;;10.51;59.56;99657.28;3565327;40;20366;-67
2021/04/21 02:18:00;;;;;;;37.78;21.13;;;;;;;10.49;59.62;99657.38;3559548;40;20176;-67
2021/04/21 02:20:33;;;;;;;36.75;21.42;;;;;;;10.50;59.57;99647.72;3559300;40;20038;-68
2021/04/21 02:23:07;;;;;;;32.65;20.42;;;;;;;10.46;59.56;99652.28;3559535;40;20264;-67
2021/04/21 02:25:55;;;;;;;31.45;20.17;;;;;;;10.41;59.88;99646.41;3560009;40;20034;-68
2021/04/21 02:28:28;;;;;;;35.70;21.58;;;;;;;10.40;59.98;99649.91;3559373;40;20403;-67
2021/04/21 02:31:05;;;;;;;30.08;20.20;;;;;;;10.36;60.04;99648.38;3559330;40;20034;-68
2021/04/21 02:33:44;;;;;;;35.92;21.15;;;;;;;10.30;60.24;99653.91;3559171;40;20070;-68
2021/04/21 02:36:16;;;;;;;35.67;22.63;;;;;;;10.25;60.36;99648.03;3559103;40;20414;-67
2021/04/21 02:38:50;;;;;;;32.17;21.70;;;;;;;10.16;60.54;99646.66;3559214;40;20450;-68
2021/04/21 02:41:21;;;;;;;36.08;23.10;;;;;;;10.12;60.74;99641.63;3559440;40;20026;-66
2021/04/21 02:43:56;;;;;;;;;;;;;;;10.24;59.74;99649.81;3558348;40;20101;-68
2021/04/21 02:46:30;;;;;;;35.15;22.73;;;;;;;10.09;60.11;99640.84;3552443;40;20059;-68
2021/04/21 02:49:11;;;;;;;39.63;24.15;;;;;;;10.04;60.47;99634.97;3556107;40;20078;-67
2021/04/21 02:51:46;;;;;;;40.90;24.75;;;;;;;10.00;60.55;99640.44;3558920;40;20030;-67
2021/04/21 02:54:24;;;;;;;35.42;22.75;;;;;;;9.97;60.64;99651.03;3558371;40;20303;-67
2021/04/21 02:56:56;;;;;;;38.22;23.38;;;;;;;9.93;60.86;99654.72;3558149;40;20026;-67
2021/04/21 02:59:31;;;;;;;42.33;25.00;;;;;;;9.88;61.07;99651.47;3559215;40;20042;-68
2021/04/21 03:02:05;;;;;;;45.95;25.13;;;;;;;9.80;61.19;99646.56;3558976;40;20088;-67
2021/04/21 03:04:40;;;;;;;43.83;25.92;;;;;;;9.73;61.33;99653.81;3559526;40;20056;-67
2021/04/21 03:07:12;;;;;;;40.40;26.40;;;;;;;9.70;61.38;99653.13;3558250;40;20124;-67
2021/04/21 03:09:45;;;;;;;43.40;26.88;;;;;;;9.66;61.48;99657.66;3559174;40;20070;-67
2021/04/21 03:12:13;;;;;;;44.05;27.27;;;;;;;9.62;61.50;99655.22;3558972;40;20107;-67
2021/04/21 03:14:44;;;;;;;42.70;25.48;;;;;;;9.58;61.71;99653.66;3558362;40;20274;-67
2021/04/21 03:17:12;;;;;;;44.63;27.25;;;;;;;9.54;61.68;99652.09;3558843;40;20030;-67
2021/04/21 03:19:42;;;;;;;39.20;26.75;;;;;;;9.48;61.69;99664.53;3558162;40;20046;-67
2021/04/21 03:22:14;;;;;;;48.70;38.47;;;;;;;9.47;61.46;99667.22;3558852;40;20030;-67
2021/04/21 03:24:45;;;;;;;41.10;26.00;;;;;;;9.37;61.90;99676.34;3559493;40;20038;-67
2021/04/21 03:27:13;;;;;;;43.50;27.38;;;;;;;9.33;62.07;99675.63;3559443;40;20030;-67
2021/04/21 03:29:46;;;;;;;41.85;27.33;;;;;;;9.30;62.37;99675.75;3556392;40;20053;-67
2021/04/21 03:32:19;;;;;;;44.58;28.35;;;;;;;9.32;62.21;99680.94;3549028;40;20426;-67
2021/04/21 03:34:48;;;;;;;47.22;28.73;;;;;;;9.38;62.17;99668.47;3555765;40;20034;-67
2021/04/21 03:37:25;;;;;;;45.10;29.40;;;;;;;9.40;62.10;99681.47;3548041;40;20089;-67
2021/04/21 03:39:51;;;;;;;46.72;26.55;;;;;;;9.45;61.92;99680.34;3556221;40;20281;-67
2021/04/21 03:42:18;;;;;;;44.90;28.92;;;;;;;9.52;61.90;99685.31;3548777;40;20038;-67
2021/04/21 03:44:45;;;;;;;49.35;28.90;;;;;;;9.57;61.79;99689.44;3549531;40;20120;-68
2021/04/21 03:47:13;;;;;;;44.65;28.40;;;;;;;9.61;61.86;99690.19;3549369;40;20061;-67
2021/04/21 03:49:39;;;;;;;47.90;28.17;;;;;;;9.62;61.68;99686.63;3549192;40;20049;-66
2021/04/21 03:52:07;;;;;;;43.40;26.13;;;;;;;9.64;61.68;99676.94;3549110;40;20041;-70
2021/04/21 03:54:35;;;;;;;39.05;26.58;;;;;;;9.68;61.68;99678.50;3549096;40;20042;-70
2021/04/21 03:57:03;;;;;;;40.85;26.40;;;;;;;9.67;61.76;99682.91;3548889;40;20040;-69
2021/04/21 03:59:32;;;;;;;41.08;26.60;;;;;;;9.69;61.67;99677.59;3556204;40;20050;-71
2021/04/21 04:02:01;;;;;;;46.83;27.02;;;;;;;9.69;61.82;99674.97;3559737;40;20037;-70
2021/04/21 04:04:32;;;;;;;46.08;27.85;;;;;;;9.74;61.67;99681.69;3559982;40;20044;-70
2021/04/21 04:07:05;;;;;;;44.85;28.67;;;;;;;9.81;61.42;99669.22;3559052;40;20030;-71
2021/04/21 04:09:35;;;;;;;50.33;27.75;;;;;;;9.86;61.30;99669.84;3559228;40;20411;-70
2021/04/21 04:12:05;;;;;;;45.38;29.60;;;;;;;9.89;61.34;99663.63;3559124;40;20038;-71
2021/04/21 04:14:33;;;;;;;41.47;25.30;;;;;;;9.95;61.14;99661.56;3558589;40;20340;-70
2021/04/21 04:17:01;;;;;;;38.72;26.50;;;;;;;10.04;60.99;99660.31;3558560;40;20073;-70
2021/04/21 04:19:32;;;;;;;39.58;26.23;;;;;;;10.13;60.83;99662.50;3558968;40;20049;-70
2021/04/21 04:22:05;;;;;;;45.70;26.52;;;;;;;10.19;60.56;99651.75;3559318;40;20403;-72
2021/04/21 04:24:38;;;;;;;45.00;26.83;;;;;;;10.15;60.72;99654.56;3558934;40;20360;-70
2021/04/21 04:27:07;;;;;;;46.75;27.20;;;;;;;10.17;60.63;99652.75;3558724;40;20026;-70
2021/04/21 04:29:34;;;;;;;50.78;29.27;;;;;;;10.27;60.59;99646.19;3564569;40;20053;-70
2021/04/21 04:32:03;;;;;;;40.85;27.00;;;;;;;10.38;60.36;99659.63;3555825;40;20034;-70
2021/04/21 04:34:32;;;;;;;47.40;28.13;;;;;;;10.47;60.11;99648.72;3556903;40;20042;-70
2021/04/21 04:36:59;;;;;;;45.55;28.77;;;;;;;10.52;59.96;99651.13;3557310;40;20030;-70
2021/04/21 04:39:25;;;;;;;43.65;27.25;;;;;;;10.60;59.84;99657.69;3559034;40;20038;-69
2021/04/21 04:41:51;;;;;;;40.03;25.80;;;;;;;10.77;59.48;99667.38;3558874;40;20034;-69
2021/04/21 04:44:19;;;;;;;43.65;26.23;;;;;;;10.91;59.12;99662.31;3558328;40;20081;-70
2021/04/21 04:46:49;;;;;;;41.47;24.63;;;;;;;10.98;59.11;99655.00;3558349;40;20038;-70
2021/04/21 04:49:18;;;;;;;34.45;23.25;;;;;;;11.02;59.19;99646.03;3558563;40;20378;-70
2021/04/21 04:51:47;;;;;;;43.17;24.45;;;;;;;11.06;59.29;99659.88;3558684;40;20308;-70
2021/04/21 04:54:15;;;;;;;41.65;26.35;;;;;;;11.07;59.64;99677.31;3558618;40;20359;-70
2021/04/21 04:56:44;;;;;;;44.70;25.65;;;;;;;11.09;59.65;99673.69;3558136;40;20112;-70
2021/04/21 04:59:12;;;;;;;40.90;27.65;;;;;;;11.20;59.95;99673.97;3556908;40;20042;-70
2021/04/21 05:01:47;;;;;;;40.35;26.20;;;;;;;11.20;60.04;99671.34;3557216;40;20040;-71
2021/04/21 05:04:17;;;;;;;39.03;25.58;;;;;;;11.24;60.21;99680.78;3557704;40;20120;-70
2021/04/21 05:06:49;;;;;;;38.05;23.95;;;;;;;11.32;60.27;99682.19;3557862;40;20030;-70
2021/04/21 05:09:19;;;;;;;40.60;24.83;;;;;;;11.43;60.09;99679.84;3558137;40;20034;-70
2021/04/21 05:11:47;;;;;;;39.67;26.52;;;;;;;11.50;60.08;99689.13;3557419;40;20128;-70
2021/04/21 05:14:17;;;;;;;41.55;26.35;;;;;;;11.54;60.12;99694.13;3558136;40;20042;-70
2021/04/21 05:17:13;;;;;;;42.28;27.25;;;;;;;11.59;60.13;99686.00;3557543;40;20041;-70
2021/04/21 05:20:22;;;;;;;40.25;26.00;;;;;;;11.56;60.24;99675.69;3555502;40;20120;-70
2021/04/21 05:23:29;;;;;;;40.90;26.77;;;;;;;11.58;60.41;99668.56;3557304;40;20399;-70
2021/04/21 05:26:28;;;;;;;42.78;26.63;;;;;;;11.67;60.22;99670.72;3554834;40;20036;-70
2021/04/21 05:29:44;;;;;;;40.05;26.88;;;;;;;11.80;59.95;99674.44;3556270;40;20046;-72
2021/04/21 05:32:42;;;;;;;39.17;24.98;;;;;;;11.93;59.53;99677.28;3547036;40;20058;-70
2021/04/21 05:35:36;;;;;;;42.08;25.30;;;;;;;12.02;59.44;99666.25;3556404;40;20030;-71
2021/04/21 05:38:49;;;;;;;38.25;24.05;;;;;;;12.21;59.14;99674.84;3558108;40;20070;-71
2021/04/21 05:41:49;;;;;;;41.25;24.92;;;;;;;12.25;58.96;99669.44;3554773;40;20046;-73
2021/04/21 05:44:33;;;;;;;40.78;27.00;;;;;;;12.26;58.97;99677.22;3556056;40;20054;-70
2021/04/21 05:47:41;;;;;;;38.30;25.67;;;;;;;12.32;58.83;99670.81;3554174;40;20417;-71
2021/04/21 05:50:50;;;;;;;43.70;25.67;;;;;;;12.60;58.23;99670.97;3545274;40;20042;-71
2021/04/21 05:53:54;;;;;;;39.55;26.30;;;;;;;13.00;57.35;99672.19;3558123;40;20045;-71
2021/04/21 05:56:57;;;;;;;37.15;23.05;;;;;;;13.34;56.51;99663.22;3554146;40;20361;-71
2021/04/21 05:59:59;;;;;;;38.60;27.25;;;;;;;13.55;56.09;99662.91;3557305;40;20040;-72
2021/04/21 06:02:26;;;;;;;;;;;;;;;13.91;55.01;99665.06;3557701;40;20046;-71
2021/04/21 06:05:04;;;;;;;34.80;23.75;;;;;;;14.13;54.46;99667.22;3561863;40;20334;-71
2021/04/21 06:07:30;;;;;;;31.77;21.83;;;;;;;14.69;53.87;99665.47;3560306;40;20038;-72
2021/04/21 06:09:57;;;;;;;27.73;19.90;;;;;;;15.50;51.43;99664.44;3555092;40;20322;-71
2021/04/21 06:12:24;;;;;;;29.58;18.17;;;;;;;16.10;50.39;99662.97;3563306;40;20038;-71
2021/04/21 06:14:52;;;;;;;27.02;18.23;;;;;;;16.77;49.41;99661.66;3556543;40;20096;-72
2021/04/21 06:17:24;;;;;;;30.02;17.75;;;;;;;17.89;46.49;99653.22;3556486;40;20338;-72
2021/04/21 06:19:50;;;;;;;22.35;15.98;;;;;;;19.47;43.79;99655.41;3555823;40;20048;-72
2021/04/21 06:22:28;;;;;;;22.13;15.25;;;;;;;21.13;40.00;99647.91;3555727;40;20041;-72
2021/04/21 06:25:09;;;;;;;20.55;15.60;;;;;;;22.32;38.16;99648.22;3558445;40;20085;-71
2021/04/21 06:27:36;;;;;;;18.67;14.35;;;;;;;21.87;39.05;99642.75;3556529;40;20058;-73
2021/04/21 06:30:05;;;;;;;18.65;13.88;;;;;;;22.83;37.19;99640.63;3556672;40;20279;-71
2021/04/21 06:32:33;;;;;;;18.00;13.77;;;;;;;23.75;35.11;99643.75;3556197;40;20030;-72
2021/04/21 06:35:07;;;;;;;18.67;13.85;;;;;;;23.71;34.84;99643.22;3557063;40;20297;-72
2021/04/21 06:37:35;;;;;;;18.27;14.02;;;;;;;23.13;35.90;99640.25;3566214;40;20045;-71
2021/04/21 06:40:04;;;;;;;16.67;12.80;;;;;;;23.69;34.77;99649.72;3558407;40;20033;-73
2021/04/21 06:42:33;;;;;;;22.33;14.07;;;;;;;23.73;34.63;99635.03;3560113;40;20040;-73
2021/04/21 06:45:01;;;;;;;21.25;14.52;;;;;;;22.50;36.25;99646.44;3556760;40;20066;-73
2021/04/21 06:47:28;;;;;;;19.50;14.07;;;;;;;22.50;36.06;99645.59;3557684;40;20423;-72
2021/04/21 06:50:03;;;;;;;21.15;14.95;;;;;;;21.46;37.78;99647.50;3555432;40;20046;-67
2021/04/21 06:52:34;;;;;;;21.20;14.80;;;;;;;20.39;39.08;99656.28;3557061;40;20084;-67
2021/04/21 06:55:05;;;;;;;21.77;13.68;;;;;;;20.02;39.49;99653.38;3556089;40;20069;-69
2021/04/21 06:57:32;;;;;;;25.77;16.70;;;;;;;20.73;38.21;99656.84;3557255;40;20038;-69
2021/04/21 07:00:09;;;;;;;27.73;17.02;;;;;;;21.57;36.74;99644.66;3555919;40;20062;-68
2021/04/21 07:02:38;;;;;;;22.42;14.45;;;;;;;21.44;36.54;99641.44;3556869;40;20041;-68
2021/04/21 07:05:07;;;;;;;19.15;14.60;;;;;;;21.46;36.61;99644.81;3561010;40;20369;-68
2021/04/21 07:07:34;;;;;;;19.27;14.73;;;;;;;21.57;36.15;99652.66;3557807;40;20070;-68
2021/04/21 07:10:01;;;;;;;20.75;14.85;;;;;;;20.76;37.21;99653.91;3561756;40;20034;-73
2021/04/21 07:12:30;;;;;;;19.73;14.23;;;;;;;19.95;38.90;99652.19;3557379;40;20087;-74
2021/04/21 07:14:56;;;;;;;21.80;15.32;;;;;;;20.13;38.46;99650.59;3557697;40;20044;-74
2021/04/21 07:17:24;;;;;;;22.30;16.38;;;;;;;24.44;31.91;99639.28;3556840;40;20457;-73
2021/04/21 07:19:50;;;;;;;19.83;13.95;;;;;;;28.15;26.57;99630.94;3556508;40;20414;-73
2021/04/21 07:22:17;;;;;;;21.33;15.43;;;;;;;30.97;23.41;99626.34;3557470;40;20048;-73
2021/04/21 07:24:45;;;;;;;24.90;15.48;;;;;;;33.31;20.86;99619.03;3562874;40;20034;-74
2021/04/21 07:27:13;;;;;;;18.65;14.25;;;;;;;31.79;21.68;99619.75;3557241;40;20044;-73
2021/04/21 07:29:44;;;;;;;21.63;14.98;;;;;;;30.17;24.11;99624.38;3556527;40;20160;-72
2021/04/21 07:32:18;;;;;;;18.17;13.10;;;;;;;30.66;22.81;99616.09;3558356;40;20102;-73
2021/04/21 07:34:56;;;;;;;16.13;13.05;;;;;;;33.56;20.10;99611.75;3551603;40;20038;-74
2021/04/21 07:37:32;;;;;;;18.25;12.93;;;;;;;32.72;20.79;99621.09;3557905;40;20041;-74
2021/04/21 07:39:58;;;;;;;17.67;13.15;;;;;;;34.45;19.34;99615.00;3564592;40;20044;-74
2021/04/21 07:42:24;;;;;;;16.40;13.00;;;;;;;35.65;17.87;99612.16;3557611;40;20034;-74
2021/04/21 07:44:52;;;;;;;17.40;12.18;;;;;;;35.57;17.82;99623.38;3558183;40;20260;-72
2021/04/21 07:47:19;;;;;;;16.33;12.77;;;;;;;32.50;20.69;99625.19;3558474;40;20049;-72
2021/04/21 07:49:54;;;;;;;16.33;12.80;;;;;;;30.30;22.88;99619.06;3564437;40;20032;-73
2021/04/21 07:52:23;;;;;;;20.70;13.90;;;;;;;28.96;23.67;99625.53;3564525;40;20120;-74
2021/04/21 07:54:49;;;;;;;17.17;12.40;;;;;;;28.31;24.65;99627.22;3559751;40;20391;-74
2021/04/21 07:57:17;;;;;;;23.60;13.27;;;;;;;30.94;21.66;99622.19;3558079;40;20048;-74
2021/04/21 07:59:46;;;;;;;15.68;12.23;;;;;;;33.79;18.81;99613.00;3558328;40;20054;-73
2021/04/21 08:02:17;;;;;;;16.00;12.60;;;;;;;35.95;16.33;99603.84;3557076;40;20073;-74
2021/04/21 08:04:57;;;;;;;15.98;10.98;;;;;;;38.61;14.21;99602.56;3560873;40;20046;-73
2021/04/21 08:07:39;;;;;;;18.27;12.90;;;;;;;40.30;13.67;99603.59;3559692;40;20026;-72
2021/04/21 08:10:09;;;;;;;17.15;10.90;;;;;;;39.51;13.84;99603.66;3559444;40;20384;-72
2021/04/21 08:12:36;;;;;;;;;;;;;;;36.23;17.63;99614.81;3557411;40;20334;-74
2021/04/21 08:15:05;;;;;;;13.63;9.75;;;;;;;39.09;13.81;99604.44;3570415;40;20309;-73
2021/04/21 08:17:49;;;;;;;13.68;9.68;;;;;;;38.22;14.01;99607.31;3558080;40;20041;-73
2021/04/21 08:20:24;;;;;;;11.77;9.30;;;;;;;38.52;13.63;99602.19;3558210;40;20037;-74
2021/04/21 08:22:53;;;;;;;13.48;9.73;;;;;;;41.72;11.32;99605.72;3557176;40;20217;-69
2021/04/21 08:25:20;;;;;;;13.77;9.20;;;;;;;41.48;11.60;99610.97;3560413;40;20036;-68
2021/04/21 08:27:46;;;;;;;12.98;9.38;;;;;;;41.22;11.16;99612.03;3557934;40;20066;-68
2021/04/21 08:30:13;;;;;;;9.90;8.75;;;;;;;43.03;10.42;99605.41;3563920;40;20073;-69
2021/04/21 08:32:40;;;;;;;10.63;8.35;;;;;;;40.93;10.76;99614.50;3560348;40;20042;-69
2021/04/21 08:35:08;;;;;;;11.90;8.52;;;;;;;41.62;10.15;99611.19;3557952;40;20040;-69
2021/04/21 08:37:36;;;;;;;11.57;8.77;;;;;;;40.21;11.24;99607.97;3557437;40;20074;-68
2021/04/21 08:40:03;;;;;;;12.20;10.50;;;;;;;38.63;12.37;99622.34;3563763;40;20034;-69
2021/04/21 08:42:31;;;;;;;13.02;8.82;;;;;;;36.80;13.43;99620.34;3556565;40;20078;-68
2021/04/21 08:45:01;;;;;;;10.40;7.65;;;;;;;34.44;14.39;99614.19;3560012;40;20414;-69
2021/04/21 08:47:28;;;;;;;10.75;8.48;;;;;;;33.26;15.73;99625.13;3556611;40;20046;-69
2021/04/21 08:49:55;;;;;;;17.05;9.35;;;;;;;32.93;16.57;99621.84;3558466;40;20074;-68
2021/04/21 08:52:25;;;;;;;10.60;8.13;;;;;;;33.36;16.40;99621.97;3556846;40;20073;-68
2021/04/21 08:54:55;;;;;;;12.52;8.90;;;;;;;36.62;13.78;99604.97;3559349;40;20347;-68
2021/04/21 08:57:22;;;;;;;10.33;7.70;;;;;;;36.61;13.83;99614.22;3557271;40;20030;-69
2021/04/21 08:59:48;;;;;;;12.82;6.97;;;;;;;34.05;14.96;99615.44;3558179;40;20296;-69
2021/04/21 09:02:16;;;;;;;10.90;6.95;;;;;;;35.82;13.48;99614.97;3560211;40;20410;-68
2021/04/21 09:04:43;;;;;;;11.80;7.65;;;;;;;38.26;11.94;99612.00;3557031;40;20045;-69
2021/04/21 09:07:13;;;;;;;9.60;5.97;;;;;;;35.84;12.87;99619.16;3556311;40;20038;-68
2021/04/21 09:09:39;;;;;;;12.43;7.00;;;;;;;32.99;15.42;99626.38;3559153;40;20361;-68
2021/04/21 09:12:08;;;;;;;9.07;6.38;;;;;;;31.97;15.81;99627.22;3563469;40;20050;-68
2021/04/21 09:14:35;;;;;;;10.13;6.40;;;;;;;32.73;15.10;99622.78;3572457;40;20045;-68
2021/04/21 09:17:01;;;;;;;8.45;5.80;;;;;;;32.99;14.91;99619.06;3558448;40;20056;-68
2021/04/21 09:19:28;;;;;;;9.70;5.50;;;;;;;35.49;12.93;99615.59;3558294;40;20056;-68
2021/04/21 09:22:05;;;;;;;10.20;5.82;;;;;;;38.00;11.27;99593.59;3559532;40;20171;-68
2021/04/21 09:24:34;;;;;;;7.82;5.65;;;;;;;38.85;10.49;99597.63;3557406;40;20071;-68
2021/04/21 09:27:26;;;;;;;8.97;6.53;;;;;;;40.11;9.79;99595.00;3556567;40;20038;-69
2021/04/21 09:30:13;;;;;;;9.18;6.45;;;;;;;40.04;10.30;99594.44;3563217;40;20418;-69
2021/04/21 09:32:50;;;;;;;8.90;5.80;;;;;;;36.56;12.38;99596.94;3559553;40;20110;-67
2021/04/21 09:35:20;;;;;;;9.13;5.60;;;;;;;32.24;15.37;99609.81;3555624;40;20038;-68
2021/04/21 09:37:47;;;;;;;15.38;6.40;;;;;;;31.30;16.01;99601.22;3556918;40;20050;-69
2021/04/21 09:40:15;;;;;;;7.65;5.22;;;;;;;33.97;14.39;99588.56;3563417;40;20037;-68
2021/04/21 09:42:54;;;;;;;11.00;6.30;;;;;;;31.72;15.68;99594.53;3557696;40;20038;-69
2021/04/21 09:45:32;;;;;;;12.48;7.03;;;;;;;31.35;15.83;99590.59;3565145;40;20101;-69
2021/04/21 09:48:07;;;;;;;8.73;6.30;;;;;;;29.49;17.93;99588.19;3559176;40;20033;-68
2021/04/21 09:50:35;;;;;;;12.27;6.75;;;;;;;29.46;17.88;99577.78;3559949;40;20042;-68
2021/04/21 09:53:02;;;;;;;8.07;5.57;;;;;;;29.86;17.23;99587.81;3556591;40;20069;-68
2021/04/21 09:55:41;;;;;;;12.43;6.07;;;;;;;28.10;18.90;99589.41;3559284;40;20383;-68
2021/04/21 09:58:27;;;;;;;11.05;6.20;;;;;;;26.50;21.00;99589.66;3557765;40;20071;-68
2021/04/21 10:01:34;;;;;;;9.02;6.35;;;;;;;25.39;21.98;99597.66;3556148;40;20426;-68
2021/04/21 10:04:12;;;;;;;9.93;6.53;;;;;;;24.64;22.54;99589.75;3539367;40;20131;-68
2021/04/21 10:06:41;;;;;;;14.70;7.28;;;;;;;24.02;23.44;99589.19;3553846;40;20034;-68
2021/04/21 10:09:26;;;;;;;12.30;6.93;;;;;;;23.07;24.41;99590.91;3554173;40;20124;-69
2021/04/21 10:11:53;;;;;;;12.13;6.97;;;;;;;22.58;25.53;99588.75;3560919;40;20497;-68
2021/04/21 10:14:24;;;;;;;14.75;7.47;;;;;;;22.60;26.01;99586.75;3557435;40;20130;-68
2021/04/21 10:16:52;;;;;;;9.90;6.90;;;;;;;22.85;25.62;99575.34;3565718;40;20049;-68
2021/04/21 10:19:19;;;;;;;10.32;6.65;;;;;;;22.46;25.57;99574.75;3556140;40;20075;-68
2021/04/21 10:21:45;;;;;;;15.43;7.38;;;;;;;22.47;25.14;99571.94;3559002;40;20037;-67
2021/04/21 10:24:15;;;;;;;19.20;9.40;;;;;;;22.85;25.40;99577.16;3559182;40;20116;-69
2021/04/21 10:26:42;;;;;;;11.10;6.97;;;;;;;23.15;24.79;99575.94;3561483;40;20056;-68
2021/04/21 10:29:09;;;;;;;12.63;6.60;;;;;;;22.62;25.28;99574.94;3562784;40;20038;-70
2021/04/21 10:31:36;;;;;;;8.50;6.28;;;;;;;22.02;25.36;99574.56;3562352;40;20070;-69
2021/04/21 10:34:05;;;;;;;9.77;5.93;;;;;;;21.63;26.62;99575.69;3559335;40;20049;-68
2021/04/21 10:36:31;;;;;;;9.50;6.20;;;;;;;21.73;25.89;99571.19;3557677;40;20030;-68
2021/04/21 10:39:00;;;;;;;13.63;6.40;;;;;;;21.52;26.24;99569.56;3559227;40;20038;-69
2021/04/21 10:41:31;;;;;;;12.13;6.78;;;;;;;21.33;26.62;99569.63;3555507;40;20039;-69
2021/04/21 10:44:25;;;;;;;10.85;6.30;;;;;;;21.11;26.70;99565.41;3555423;40;20045;-68
2021/04/21 10:47:10;;;;;;;12.88;6.07;;;;;;;20.88;26.83;99559.56;3553309;40;20042;-70
2021/04/21 10:49:38;;;;;;;9.80;5.63;;;;;;;20.89;26.81;99553.25;3557278;40;20112;-68
2021/04/21 10:52:13;;;;;;;10.98;6.30;;;;;;;21.13;26.50;99551.94;3556853;40;20066;-69
2021/04/21 10:54:39;;;;;;;11.43;5.78;;;;;;;21.44;26.65;99524.09;3561130;40;20078;-69
2021/04/21 10:57:27;;;;;;;6.97;5.00;;;;;;;21.30;26.40;99541.44;3557802;40;20077;-69
2021/04/21 11:00:17;;;;;;;13.00;6.68;;;;;;;21.21;26.45;99554.72;3557550;40;20065;-67
2021/04/21 11:02:50;;;;;;;9.05;6.00;;;;;;;20.89;26.98;99537.25;3556779;40;20069;-69
2021/04/21 11:05:20;;;;;;;27.05;11.60;;;;;;;20.71;27.48;99549.59;3556883;40;20038;-68
2021/04/21 11:07:57;;;;;;;23.20;10.20;;;;;;;20.71;27.04;99546.94;3557130;40;20462;-67
2021/04/21 11:10:36;;;;;;;12.00;6.25;;;;;;;20.69;27.23;99538.25;3558953;40;20042;-74
2021/04/21 11:13:05;;;;;;;8.43;6.60;;;;;;;20.67;27.93;99541.06;3563232;40;20086;-77
2021/04/21 11:15:39;;;;;;;12.52;7.03;;;;;;;20.65;28.18;99544.84;3557735;40;20177;-74
2021/04/21 11:18:23;;;;;;;11.02;6.72;;;;;;;20.47;27.95;99543.84;3557054;40;20049;-74
2021/04/21 11:21:03;;;;;;;13.75;6.82;;;;;;;20.26;28.29;99542.09;3558669;40;20049;-75
2021/04/21 11:24:13;;;;;;;23.92;9.45;;;;;;;20.11;28.11;99532.81;3558669;40;20046;-74
2021/04/21 11:26:42;;;;;;;15.13;7.43;;;;;;;20.65;28.22;99534.19;3556570;40;20448;-72
2021/04/21 11:29:12;;;;;;;12.30;5.68;;;;;;;20.90;27.22;99525.63;3558620;40;20082;-74
2021/04/21 11:32:13;;;;;;;9.57;5.10;;;;;;;20.84;27.11;99520.88;3557574;40;20070;-75
2021/04/21 11:34:41;;;;;;;10.65;6.00;;;;;;;20.68;28.17;99517.94;3535283;40;20106;-75
2021/04/21 11:37:09;;;;;;;16.05;6.70;;;;;;;20.64;27.79;99508.53;3536001;40;20319;-74
2021/04/21 11:40:06;;;;;;;10.35;5.53;;;;;;;20.92;27.60;99520.97;3553152;40;20496;-74
2021/04/21 11:42:36;;;;;;;14.48;6.13;;;;;;;21.12;27.12;99531.63;3558003;40;20314;-72
2021/04/21 11:45:22;;;;;;;12.68;6.13;;;;;;;20.98;27.20;99516.91;3558370;40;20294;-73
2021/04/21 11:47:50;;;;;;;7.35;5.43;;;;;;;20.99;26.60;99523.91;3564512;40;20080;-73
2021/04/21 11:50:30;;;;;;;8.55;5.57;;;;;;;21.22;26.04;99519.09;3562032;40;20050;-74